RKJK/KUV METAR and TAF weather

Enter ICAO airport designator
Station Type Date Time Source
RKJK METAR 2022/08/13 12:56 UTC NOAA

RKJK 131256Z AUTO 14006KT 10SM BKN020 OVC110 26/24 A2969 RMK AO2 BKN V OVC SLP058 T02580244


Station Type Date Time Source
RKJK Decoded METAR 2022/08/13 12:56 UTC NOAA

Kunsan Ab, Korea, South (RKJK) 35-55N 126-37E 10M
Aug 13, 2022 - 08:56 AM EDT / 2022.08.13 1256 UTC
Wind: from the SE (140 degrees) at 7 MPH (6 KT):0
Visibility: 10 mile(s):0
Sky conditions: overcast
Temperature: 78.4 F (25.8 C)
Dew Point: 75.9 F (24.4 C)
Relative Humidity: 91%
Pressure (altimeter): 29.69 in. Hg (1005 hPa)
ob: RKJK 131256Z AUTO 14006KT 10SM BKN020 OVC110 26/24 A2969 RMK AO2 BKN V OVC SLP058 T02580244
cycle: 13

Station Type Date Time Source
RKJK TAF 2022/08/12 08:58 UTC NOAA

TAF RKJK 120800Z 1208/1314 26009KT 9999 BKN200 QNH2969INS
BECMG 1217/1218 18006KT 8000 BR BKN015 QNH2968INS
TEMPO 1221/1223 6000 -DZ BR BKN012
BECMG 1223/1224 21009KT 9000 BR SCT015 QNH2972INS
BECMG 1303/1304 21015G20KT 8000 -SHRA VCTS BKN007CB BKN200 QNH2973INS
BECMG 1306/1307 19010G15KT 9999 NSW SCT015 BKN060 QNH2972INS
BECMG 1313/1314 19010G15KT 8000 -SHRA SCT012 BKN030 QNH2974INS TX31/1208Z TN26/1220Z LAST NO
AMDS AFT 1208 NEXT 1416

Example: see airport list